createdAt,value
2023-03-05T00:00:54.327Z,44.61
2023-03-05T00:03:21.020Z,44.79
2023-03-05T00:05:47.632Z,44.53
2023-03-05T00:08:14.175Z,44.60
2023-03-05T00:10:40.744Z,44.56
2023-03-05T00:13:07.853Z,44.71
2023-03-05T00:15:34.422Z,44.72
2023-03-05T00:18:00.972Z,44.74
2023-03-05T00:20:27.585Z,44.60
2023-03-05T00:22:54.134Z,44.76
2023-03-05T00:25:22.006Z,44.72
2023-03-05T00:27:48.583Z,44.58
2023-03-05T00:30:15.160Z,44.50
2023-03-05T00:32:41.771Z,44.57
2023-03-05T00:35:08.787Z,44.48
2023-03-05T00:37:35.386Z,44.68
2023-03-05T00:40:02.395Z,44.46
2023-03-05T00:42:29.029Z,44.54
2023-03-05T00:44:55.603Z,44.41
2023-03-05T00:47:22.180Z,44.53
2023-03-05T00:49:48.749Z,44.51
2023-03-05T00:52:15.321Z,44.39
2023-03-05T00:54:41.885Z,44.36
2023-03-05T00:57:08.438Z,44.44
2023-03-05T00:59:35.059Z,44.46
2023-03-05T01:02:01.730Z,44.48
2023-03-05T01:04:28.405Z,44.31
2023-03-05T01:06:54.979Z,44.43
2023-03-05T01:09:21.883Z,44.39
2023-03-05T01:11:48.463Z,44.46
2023-03-05T01:14:15.041Z,44.52
2023-03-05T01:16:41.617Z,44.41
2023-03-05T01:19:08.591Z,44.40
2023-03-05T01:21:36.060Z,44.30
2023-03-05T01:24:03.413Z,44.33
2023-03-05T01:26:30.188Z,44.30
2023-03-05T01:28:56.737Z,44.29
2023-03-05T01:31:23.997Z,44.45
2023-03-05T01:33:54.687Z,44.34
2023-03-05T01:36:24.916Z,44.46
2023-03-05T01:38:52.179Z,44.49
2023-03-05T01:41:19.663Z,44.33
2023-03-05T01:43:47.245Z,44.32
2023-03-05T01:46:35.031Z,44.15
2023-03-05T01:49:11.687Z,44.29
2023-03-05T01:51:59.759Z,44.31
2023-03-05T01:54:47.352Z,44.18
2023-03-05T01:57:17.534Z,44.38
2023-03-05T01:59:46.383Z,44.31
2023-03-05T02:02:13.225Z,44.44
2023-03-05T02:04:46.816Z,44.11
2023-03-05T02:07:14.351Z,44.35
2023-03-05T02:09:41.613Z,44.43
2023-03-05T02:12:09.558Z,44.24
2023-03-05T02:14:36.444Z,44.26
2023-03-05T02:17:03.102Z,44.31
2023-03-05T02:19:29.743Z,44.45
2023-03-05T02:21:56.307Z,44.28
2023-03-05T02:24:36.987Z,44.33
2023-03-05T02:27:05.160Z,44.45
2023-03-05T02:29:33.586Z,44.28
2023-03-05T02:32:00.929Z,44.32
2023-03-05T02:34:27.535Z,44.22
2023-03-05T02:36:55.548Z,44.32
2023-03-05T02:39:22.221Z,44.25
2023-03-05T02:41:48.779Z,44.37
2023-03-05T02:44:15.383Z,44.29
2023-03-05T02:46:41.980Z,44.28
2023-03-05T02:49:08.539Z,44.28
2023-03-05T02:51:35.142Z,44.24
2023-03-05T02:54:01.703Z,44.48
2023-03-05T02:56:28.283Z,44.27
2023-03-05T02:58:54.891Z,44.45
2023-03-05T03:01:21.527Z,44.31
2023-03-05T03:03:48.125Z,44.49
2023-03-05T03:06:14.820Z,44.54
2023-03-05T03:08:41.375Z,44.42
2023-03-05T03:11:09.355Z,44.41
2023-03-05T03:13:35.958Z,44.36
2023-03-05T03:16:04.795Z,44.26
2023-03-05T03:18:31.372Z,44.35
2023-03-05T03:20:58.106Z,44.54
2023-03-05T03:23:25.206Z,44.36
2023-03-05T03:25:51.852Z,44.31
2023-03-05T03:28:18.438Z,44.30
2023-03-05T03:30:45.088Z,44.43
2023-03-05T03:33:11.705Z,44.46
2023-03-05T03:35:38.502Z,44.44
2023-03-05T03:38:05.348Z,44.40
2023-03-05T03:40:32.065Z,44.41
2023-03-05T03:42:58.614Z,44.13
2023-03-05T03:45:25.163Z,44.34
2023-03-05T03:47:52.226Z,44.32
2023-03-05T03:50:18.860Z,44.39
2023-03-05T03:52:45.425Z,44.47
2023-03-05T03:55:11.986Z,44.36
2023-03-05T03:57:38.527Z,44.46
2023-03-05T04:00:10.095Z,44.51
2023-03-05T04:02:37.485Z,44.44
2023-03-05T04:05:04.533Z,44.49
2023-03-05T04:07:31.102Z,44.49
2023-03-05T04:09:57.703Z,44.39
2023-03-05T04:12:24.266Z,44.43
2023-03-05T04:14:50.840Z,44.30
2023-03-05T04:17:17.695Z,44.23
2023-03-05T04:19:44.508Z,44.32
2023-03-05T04:22:12.775Z,44.15
2023-03-05T04:24:39.383Z,44.55
2023-03-05T04:27:06.215Z,44.31
2023-03-05T04:29:33.786Z,44.26
2023-03-05T04:32:00.592Z,44.15
2023-03-05T04:34:27.178Z,44.39
2023-03-05T04:36:53.781Z,44.35
2023-03-05T04:39:21.008Z,44.30
2023-03-05T04:41:48.178Z,44.11
2023-03-05T04:44:15.060Z,44.27
2023-03-05T04:46:41.652Z,44.24
2023-03-05T04:49:08.293Z,44.34
2023-03-05T04:51:34.997Z,44.43
2023-03-05T04:54:01.574Z,44.25
2023-03-05T04:56:28.138Z,44.32
2023-03-05T04:58:54.720Z,44.28
2023-03-05T05:01:21.335Z,44.29
2023-03-05T05:03:48.038Z,44.21
2023-03-05T05:06:14.588Z,44.29
2023-03-05T05:08:41.161Z,44.35
2023-03-05T05:11:08.432Z,44.10
2023-03-05T05:13:35.514Z,44.15
2023-03-05T05:16:02.267Z,44.20
2023-03-05T05:18:28.888Z,44.48
2023-03-05T05:20:55.463Z,44.19
2023-03-05T05:23:22.030Z,44.29
2023-03-05T05:25:59.504Z,44.33
2023-03-05T05:28:26.113Z,44.42
2023-03-05T05:30:52.866Z,44.35
2023-03-05T05:33:20.143Z,44.31
2023-03-05T05:35:46.822Z,44.29
2023-03-05T05:38:13.535Z,44.26
2023-03-05T05:40:40.225Z,44.32
2023-03-05T05:43:07.323Z,44.28
2023-03-05T05:45:33.996Z,44.13
2023-03-05T05:48:00.658Z,44.38
2023-03-05T05:50:27.508Z,44.36
2023-03-05T05:52:54.088Z,44.28
2023-03-05T05:55:20.649Z,44.31
2023-03-05T05:57:47.284Z,44.29
2023-03-05T06:00:15.024Z,44.25
2023-03-05T06:02:42.485Z,44.18
2023-03-05T06:05:12.394Z,44.09
2023-03-05T06:07:39.077Z,44.34
2023-03-05T06:10:06.355Z,44.37
2023-03-05T06:12:32.911Z,44.31
2023-03-05T06:14:59.494Z,44.31
2023-03-05T06:17:30.587Z,44.32
2023-03-05T06:19:58.348Z,44.25
2023-03-05T06:22:25.021Z,44.48
2023-03-05T06:24:51.576Z,44.17
2023-03-05T06:27:18.171Z,44.16
2023-03-05T06:29:44.822Z,44.46
2023-03-05T06:32:11.392Z,44.43
2023-03-05T06:34:38.066Z,44.19
2023-03-05T06:37:04.638Z,44.19
2023-03-05T06:39:31.670Z,43.98
2023-03-05T06:41:58.287Z,44.13
2023-03-05T06:44:25.716Z,44.21
2023-03-05T06:46:52.383Z,44.16
2023-03-05T06:49:18.945Z,44.11
2023-03-05T06:51:45.522Z,44.17
2023-03-05T06:54:14.315Z,44.15
2023-03-05T06:56:43.469Z,44.27
2023-03-05T06:59:11.485Z,44.08
2023-03-05T07:01:38.218Z,44.08
2023-03-05T07:04:05.905Z,44.12
2023-03-05T07:06:33.815Z,44.18
2023-03-05T07:09:03.365Z,44.19
2023-03-05T07:11:30.495Z,44.06
2023-03-05T07:13:57.104Z,43.96
2023-03-05T07:16:27.188Z,43.97
2023-03-05T07:18:54.788Z,44.21
2023-03-05T07:21:23.688Z,44.02
2023-03-05T07:23:50.766Z,43.96
2023-03-05T07:26:17.637Z,43.48
2023-03-05T07:28:44.295Z,43.11
2023-03-05T07:31:16.158Z,42.92
2023-03-05T07:33:42.907Z,42.56
2023-03-05T07:36:10.194Z,42.51
2023-03-05T07:38:36.798Z,42.32
2023-03-05T07:41:05.214Z,41.80
2023-03-05T07:43:31.781Z,42.00
2023-03-05T07:45:58.430Z,41.53
2023-03-05T07:48:25.403Z,41.70
2023-03-05T07:51:04.257Z,41.54
2023-03-05T07:53:30.833Z,41.20
2023-03-05T07:55:57.529Z,41.34
2023-03-05T07:58:24.085Z,41.31
2023-03-05T08:00:50.861Z,41.09
2023-03-05T08:03:17.583Z,41.15
2023-03-05T08:05:44.254Z,40.97
2023-03-05T08:08:11.299Z,41.11
2023-03-05T08:10:38.552Z,41.06
2023-03-05T08:13:05.793Z,41.10
2023-03-05T08:15:32.387Z,41.17
2023-03-05T08:17:59.314Z,41.34
2023-03-05T08:20:26.327Z,41.42
2023-03-05T08:22:52.924Z,41.18
2023-03-05T08:25:19.487Z,41.26
2023-03-05T08:27:47.363Z,41.22
2023-03-05T08:30:19.924Z,41.28
2023-03-05T08:32:46.513Z,41.53
2023-03-05T08:35:13.128Z,41.62
2023-03-05T08:37:39.796Z,41.55
2023-03-05T08:40:07.049Z,41.50
2023-03-05T08:42:33.685Z,41.75
2023-03-05T08:45:00.359Z,41.59
2023-03-05T08:47:28.015Z,41.52
2023-03-05T08:49:55.709Z,41.58
2023-03-05T08:52:22.706Z,41.68
2023-03-05T08:54:49.707Z,41.80
2023-03-05T08:57:16.314Z,41.56
2023-03-05T08:59:42.875Z,41.71
2023-03-05T09:02:12.407Z,41.83
2023-03-05T09:04:39.073Z,41.66
2023-03-05T09:07:06.146Z,41.69
2023-03-05T09:09:33.175Z,41.77
2023-03-05T09:12:00.951Z,41.67
2023-03-05T09:14:28.697Z,41.68
2023-03-05T09:16:56.399Z,41.92
2023-03-05T09:19:22.988Z,41.63
2023-03-05T09:21:49.584Z,41.49
2023-03-05T09:24:16.333Z,41.72
2023-03-05T09:26:43.025Z,41.63
2023-03-05T09:29:09.893Z,41.56
2023-03-05T09:31:37.081Z,41.77
2023-03-05T09:34:05.338Z,41.79
2023-03-05T09:36:32.335Z,41.67
2023-03-05T09:38:59.260Z,41.78
2023-03-05T09:41:35.584Z,41.61
2023-03-05T09:44:32.879Z,41.89
2023-03-05T09:47:17.222Z,41.82
2023-03-05T09:49:55.293Z,41.91
2023-03-05T09:52:34.972Z,41.59
2023-03-05T09:55:01.968Z,41.68
2023-03-05T09:57:47.107Z,41.53
2023-03-05T10:00:30.595Z,41.85
2023-03-05T10:03:00.841Z,41.64
2023-03-05T10:05:43.666Z,41.43
2023-03-05T10:08:11.413Z,41.82
2023-03-05T10:10:41.687Z,41.41
2023-03-05T10:13:16.808Z,41.44
2023-03-05T10:15:54.765Z,41.73
2023-03-05T10:18:58.247Z,41.51
2023-03-05T10:21:32.650Z,41.37
2023-03-05T10:24:05.222Z,41.27
2023-03-05T10:26:45.328Z,41.58
2023-03-05T10:29:35.147Z,41.34
2023-03-05T10:32:53.061Z,41.50
2023-03-05T10:35:29.103Z,41.45
2023-03-05T10:38:32.173Z,41.43
2023-03-05T10:41:01.032Z,41.13
2023-03-05T10:43:45.463Z,41.36
2023-03-05T10:46:17.719Z,41.18
2023-03-05T10:48:52.924Z,41.07
2023-03-05T10:51:28.333Z,40.77
2023-03-05T10:54:01.574Z,40.87
2023-03-05T10:56:29.357Z,41.04
2023-03-05T10:58:55.945Z,40.88
2023-03-05T11:01:28.276Z,41.00
2023-03-05T11:04:00.722Z,40.84
2023-03-05T11:06:32.902Z,40.85
2023-03-05T11:09:18.011Z,40.82
2023-03-05T11:11:49.297Z,41.03
2023-03-05T11:14:31.335Z,41.06
2023-03-05T11:16:57.948Z,40.94
2023-03-05T11:19:35.331Z,40.91
2023-03-05T11:22:12.560Z,40.92
2023-03-05T11:24:39.195Z,40.95
2023-03-05T11:27:42.480Z,40.81
2023-03-05T11:30:21.122Z,40.82
2023-03-05T11:32:47.724Z,40.88
2023-03-05T11:35:30.905Z,40.77
2023-03-05T11:38:04.723Z,40.79
2023-03-05T11:40:35.679Z,40.89
2023-03-05T11:43:03.475Z,40.76
2023-03-05T11:45:32.029Z,40.64
2023-03-05T11:48:04.948Z,40.56
2023-03-05T11:50:34.119Z,40.72
2023-03-05T11:53:06.939Z,40.40
2023-03-05T11:55:47.048Z,40.52
2023-03-05T11:58:32.237Z,40.66
2023-03-05T12:01:00.550Z,40.58
2023-03-05T12:03:35.330Z,40.26
2023-03-05T12:06:20.611Z,40.53
2023-03-05T12:08:50.729Z,40.29
2023-03-05T12:11:20.482Z,40.33
2023-03-05T12:13:51.140Z,40.43
2023-03-05T12:16:48.127Z,40.80
2023-03-05T12:19:35.743Z,41.08
2023-03-05T12:22:03.099Z,40.92
2023-03-05T12:24:29.603Z,40.76
2023-03-05T12:27:04.928Z,40.31
2023-03-05T12:29:44.971Z,40.38
2023-03-05T12:32:28.959Z,40.46
2023-03-05T12:35:06.227Z,40.46
2023-03-05T12:37:32.744Z,40.79
2023-03-05T12:40:05.082Z,40.52
2023-03-05T12:42:31.598Z,40.69
2023-03-05T12:45:10.215Z,40.84
2023-03-05T12:47:40.784Z,40.54
2023-03-05T12:50:29.298Z,40.44
2023-03-05T12:53:18.215Z,40.87
2023-03-05T12:55:47.424Z,41.03
2023-03-05T12:58:45.507Z,41.17
2023-03-05T13:01:12.075Z,41.13
2023-03-05T13:03:45.993Z,41.48
2023-03-05T13:06:30.694Z,42.12
2023-03-05T13:09:09.225Z,42.82
2023-03-05T13:11:38.970Z,42.68
2023-03-05T13:14:32.760Z,43.00
2023-03-05T13:16:59.962Z,43.64
2023-03-05T13:19:27.056Z,43.62
2023-03-05T13:22:01.768Z,43.69
2023-03-05T13:24:29.282Z,43.39
2023-03-05T13:26:56.187Z,43.11
2023-03-05T13:29:28.382Z,42.55
2023-03-05T13:32:03.366Z,42.35
2023-03-05T13:34:46.217Z,42.17
2023-03-05T13:37:19.360Z,41.94
2023-03-05T13:39:52.408Z,41.70
2023-03-05T13:42:25.970Z,41.64
2023-03-05T13:44:56.623Z,41.65
2023-03-05T13:47:25.797Z,41.61
2023-03-05T13:49:57.527Z,41.66
2023-03-05T13:52:26.501Z,41.44
2023-03-05T13:54:53.211Z,41.84
2023-03-05T13:57:42.188Z,41.61
2023-03-05T14:00:44.084Z,41.53
2023-03-05T14:03:26.673Z,41.61
2023-03-05T14:05:54.123Z,41.36
2023-03-05T14:08:23.118Z,41.31
2023-03-05T14:10:50.447Z,41.05
2023-03-05T14:13:35.170Z,40.97
2023-03-05T14:16:23.920Z,41.05
2023-03-05T14:18:58.544Z,41.15
2023-03-05T14:21:25.549Z,41.17
2023-03-05T14:23:54.943Z,41.06
2023-03-05T14:26:33.112Z,40.86
2023-03-05T14:29:11.566Z,41.20
2023-03-05T14:32:07.948Z,40.85
2023-03-05T14:34:40.137Z,40.84
2023-03-05T14:37:25.210Z,40.87
2023-03-05T14:39:55.642Z,41.19
2023-03-05T14:42:30.944Z,40.86
2023-03-05T14:45:10.080Z,41.03
2023-03-05T14:47:36.657Z,41.30
2023-03-05T14:50:04.820Z,41.15
2023-03-05T14:52:31.640Z,42.06
2023-03-05T14:54:58.246Z,42.35
2023-03-05T14:57:29.131Z,42.34
2023-03-05T14:59:55.780Z,41.55
2023-03-05T15:02:24.516Z,41.63
2023-03-05T15:04:51.227Z,41.53
2023-03-05T15:07:26.559Z,41.42
2023-03-05T15:09:53.357Z,41.70
2023-03-05T15:12:24.519Z,41.38
2023-03-05T15:14:52.731Z,41.41
2023-03-05T15:17:22.855Z,41.44
2023-03-05T15:19:50.049Z,41.71
2023-03-05T15:22:17.432Z,41.68
2023-03-05T15:24:44.079Z,41.49
2023-03-05T15:27:10.828Z,41.10
2023-03-05T15:29:37.387Z,41.41
2023-03-05T15:32:05.567Z,41.41
2023-03-05T15:34:33.811Z,41.34
2023-03-05T15:37:01.539Z,41.57
2023-03-05T15:39:28.493Z,41.40
2023-03-05T15:41:55.492Z,41.09
2023-03-05T15:44:22.362Z,41.28
2023-03-05T15:46:48.919Z,41.27
2023-03-05T15:49:15.896Z,41.03
2023-03-05T15:51:42.499Z,41.20
2023-03-05T15:54:09.170Z,41.41
2023-03-05T15:56:35.816Z,41.61
2023-03-05T15:59:02.560Z,41.48
2023-03-05T16:01:29.190Z,41.44
2023-03-05T16:03:55.764Z,41.50
2023-03-05T16:06:24.189Z,41.40
2023-03-05T16:08:53.602Z,41.41
2023-03-05T16:11:20.294Z,41.58
2023-03-05T16:13:46.923Z,41.20
2023-03-05T16:16:13.772Z,41.47
2023-03-05T16:18:41.954Z,41.41
2023-03-05T16:21:08.628Z,41.45
2023-03-05T16:23:35.185Z,41.41
2023-03-05T16:26:01.755Z,40.95
2023-03-05T16:28:28.447Z,41.54
2023-03-05T16:30:56.757Z,41.48
2023-03-05T16:33:23.987Z,41.81
2023-03-05T16:35:50.766Z,41.96
2023-03-05T16:38:19.191Z,42.14
2023-03-05T16:41:06.787Z,42.00
2023-03-05T16:43:32.334Z,42.09
2023-03-05T16:45:58.895Z,42.01
2023-03-05T16:48:25.468Z,42.08
2023-03-05T16:50:52.161Z,42.03
2023-03-05T16:53:18.969Z,42.46
2023-03-05T16:55:45.522Z,42.27
2023-03-05T16:58:12.095Z,41.81
2023-03-05T17:00:38.711Z,41.50
2023-03-05T17:03:05.306Z,41.92
2023-03-05T17:05:32.018Z,41.85
2023-03-05T17:07:58.662Z,41.91
2023-03-05T17:10:25.308Z,41.50
2023-03-05T17:12:52.821Z,41.38
2023-03-05T17:15:19.470Z,42.08
2023-03-05T17:17:46.065Z,42.24
2023-03-05T17:20:13.261Z,43.33
2023-03-05T17:22:39.886Z,43.36
2023-03-05T17:25:06.966Z,43.79
2023-03-05T17:27:36.167Z,43.80
2023-03-05T17:30:04.532Z,44.49
2023-03-05T17:32:31.101Z,43.82
2023-03-05T17:34:57.799Z,44.24
2023-03-05T17:37:24.460Z,44.76
2023-03-05T17:39:51.012Z,45.62
2023-03-05T17:42:22.526Z,45.84
2023-03-05T17:44:50.223Z,45.47
2023-03-05T17:47:17.036Z,45.60
2023-03-05T17:49:43.599Z,45.42
2023-03-05T17:52:10.428Z,45.09
2023-03-05T17:54:36.970Z,44.89
2023-03-05T17:57:03.549Z,45.84
2023-03-05T17:59:30.102Z,45.90
2023-03-05T18:01:56.661Z,46.32
2023-03-05T18:04:23.423Z,47.57
2023-03-05T18:06:50.054Z,49.66
2023-03-05T18:09:16.612Z,48.92
2023-03-05T18:11:43.196Z,47.71
2023-03-05T18:14:09.781Z,48.20
2023-03-05T18:16:36.941Z,48.02
2023-03-05T18:19:03.639Z,47.12
2023-03-05T18:21:30.180Z,46.42
2023-03-05T18:23:56.727Z,46.36
2023-03-05T18:26:23.402Z,46.22
2023-03-05T18:28:49.959Z,46.00
2023-03-05T18:31:16.519Z,45.76
2023-03-05T18:33:43.124Z,45.46
2023-03-05T18:36:10.975Z,45.56
2023-03-05T18:38:38.484Z,45.61
2023-03-05T18:41:05.474Z,45.10
2023-03-05T18:43:32.080Z,45.15
2023-03-05T18:45:59.083Z,45.21
2023-03-05T18:48:25.820Z,44.88
2023-03-05T18:50:53.728Z,44.90
2023-03-05T18:53:21.692Z,44.72
2023-03-05T18:55:49.708Z,44.70
2023-03-05T18:58:17.623Z,44.67
2023-03-05T19:00:46.908Z,44.80
2023-03-05T19:03:14.633Z,44.72
2023-03-05T19:05:41.703Z,44.81
2023-03-05T19:08:08.581Z,44.71
2023-03-05T19:10:35.422Z,44.59
2023-03-05T19:13:39.700Z,44.42
2023-03-05T19:16:10.321Z,44.36
2023-03-05T19:18:43.847Z,44.25
2023-03-05T19:21:10.338Z,44.36
2023-03-05T19:23:36.910Z,44.02
2023-03-05T19:26:04.059Z,43.88
2023-03-05T19:28:30.653Z,44.10
2023-03-05T19:30:57.401Z,43.94
2023-03-05T19:33:25.038Z,43.78
2023-03-05T19:35:51.745Z,43.95
2023-03-05T19:38:18.446Z,43.87
2023-03-05T19:40:45.162Z,43.69
2023-03-05T19:43:11.848Z,43.73
2023-03-05T19:45:38.452Z,43.94
2023-03-05T19:48:05.503Z,43.84
2023-03-05T19:50:34.360Z,43.68
2023-03-05T19:53:01.186Z,43.54
2023-03-05T19:55:27.769Z,43.68
2023-03-05T19:57:54.364Z,43.31
2023-03-05T20:00:21.331Z,43.13
2023-03-05T20:02:48.703Z,43.06
2023-03-05T20:05:15.614Z,42.94
2023-03-05T20:07:42.190Z,43.10
2023-03-05T20:10:09.457Z,42.70
2023-03-05T20:12:36.418Z,42.71
2023-03-05T20:15:03.233Z,42.54
2023-03-05T20:17:29.844Z,42.50
2023-03-05T20:19:59.007Z,42.34
2023-03-05T20:22:25.682Z,42.46
2023-03-05T20:24:52.267Z,42.31
2023-03-05T20:27:18.814Z,42.35
2023-03-05T20:29:45.809Z,42.27
2023-03-05T20:32:12.442Z,42.14
2023-03-05T20:34:39.101Z,42.12
2023-03-05T20:37:05.976Z,42.05
2023-03-05T20:39:32.535Z,41.98
2023-03-05T20:41:59.242Z,42.15
2023-03-05T20:44:25.841Z,42.28
2023-03-05T20:47:02.546Z,42.21
2023-03-05T20:49:29.211Z,42.17
2023-03-05T20:51:55.815Z,42.04
2023-03-05T20:54:23.983Z,42.17
2023-03-05T20:56:50.613Z,42.16
2023-03-05T20:59:17.648Z,42.82
2023-03-05T21:01:44.291Z,42.61
2023-03-05T21:04:11.667Z,42.04
2023-03-05T21:06:38.574Z,42.77
2023-03-05T21:09:05.371Z,42.87
2023-03-05T21:11:32.293Z,42.84
2023-03-05T21:13:59.369Z,42.92
2023-03-05T21:16:27.224Z,42.79
2023-03-05T21:18:55.855Z,42.98
2023-03-05T21:21:22.625Z,43.07
2023-03-05T21:23:49.211Z,42.85
2023-03-05T21:26:15.858Z,42.98
2023-03-05T21:28:42.504Z,42.96
2023-03-05T21:31:14.295Z,43.15
2023-03-05T21:33:41.085Z,43.09
2023-03-05T21:36:07.856Z,42.88
2023-03-05T21:38:34.819Z,42.71
2023-03-05T21:41:02.222Z,42.71
2023-03-05T21:43:31.133Z,42.76
2023-03-05T21:45:58.572Z,42.95
2023-03-05T21:48:25.451Z,42.83
2023-03-05T21:50:52.710Z,43.01
2023-03-05T21:53:19.887Z,42.89
2023-03-05T21:56:02.814Z,42.92
2023-03-05T21:58:33.624Z,42.83
2023-03-05T22:01:00.395Z,42.71
2023-03-05T22:03:27.613Z,42.69
2023-03-05T22:05:54.446Z,42.65
2023-03-05T22:08:22.205Z,42.59
2023-03-05T22:10:49.030Z,42.22
2023-03-05T22:13:17.727Z,42.93
2023-03-05T22:15:45.258Z,42.68
2023-03-05T22:18:13.355Z,42.83
2023-03-05T22:20:39.971Z,42.69
2023-03-05T22:23:06.636Z,42.33
2023-03-05T22:25:33.387Z,42.47
2023-03-05T22:27:59.985Z,42.39
2023-03-05T22:30:26.580Z,42.66
2023-03-05T22:32:53.320Z,42.64
2023-03-05T22:35:19.994Z,42.99
2023-03-05T22:37:46.571Z,42.82
2023-03-05T22:40:15.976Z,43.04
2023-03-05T22:42:44.214Z,42.81
2023-03-05T22:45:12.493Z,42.66
2023-03-05T22:47:39.124Z,42.32
2023-03-05T22:50:06.646Z,42.07
2023-03-05T22:52:33.216Z,42.44
2023-03-05T22:55:03.046Z,42.37
2023-03-05T22:57:29.758Z,42.30
2023-03-05T22:59:56.355Z,42.28
2023-03-05T23:02:22.932Z,42.43
2023-03-05T23:04:53.093Z,42.38
2023-03-05T23:07:24.607Z,42.12
2023-03-05T23:10:15.236Z,41.98
2023-03-05T23:12:46.101Z,42.15
2023-03-05T23:15:15.139Z,42.11
2023-03-05T23:17:41.729Z,42.58
2023-03-05T23:20:10.302Z,42.40
2023-03-05T23:22:37.791Z,42.37
2023-03-05T23:25:04.661Z,42.45
2023-03-05T23:27:31.233Z,42.67
2023-03-05T23:30:21.515Z,42.58
2023-03-05T23:33:04.220Z,42.58
2023-03-05T23:35:39.444Z,42.71
2023-03-05T23:38:09.789Z,42.60
2023-03-05T23:40:39.264Z,42.56
2023-03-05T23:43:05.830Z,42.88
2023-03-05T23:45:33.161Z,42.67
2023-03-05T23:47:59.872Z,42.47
2023-03-05T23:50:32.225Z,42.88
2023-03-05T23:53:01.856Z,42.95
2023-03-05T23:55:32.453Z,42.74
2023-03-05T23:57:59.166Z,42.93
